Time;durP1;ratioP1;P1;durP2;ratioP2;P2;SDS_P1;SDS_P2;PMS_P1;PMS_P2;Temp;Humidity;BMP_temperature;BMP_pressure;BME280_temperature;BME280_humidity;BME280_pressure;Samples;Min_cycle;Max_cycle;Signal;HPM_P1;HPM_P2
2022/02/25 00:00:50;;;;;;;4.20;1.83;;;0.70;92.40;;;;;;5035002;28;20022;-68
2022/02/25 00:03:15;;;;;;;5.68;1.98;;;0.60;92.10;;;;;;5035395;28;20057;-68
2022/02/25 00:05:42;;;;;;;6.55;2.30;;;0.60;91.80;;;;;;5036114;28;20064;-68
2022/02/25 00:08:09;;;;;;;7.35;1.60;;;0.60;91.60;;;;;;5036650;28;20021;-68
2022/02/25 00:10:35;;;;;;;4.38;1.83;;;0.60;91.10;;;;;;5036454;28;20033;-68
2022/02/25 00:13:01;;;;;;;4.30;2.10;;;0.60;90.90;;;;;;5034955;28;20423;-68
2022/02/25 00:15:26;;;;;;;4.05;1.90;;;0.50;90.40;;;;;;5035173;28;20022;-68
2022/02/25 00:17:53;;;;;;;3.88;2.17;;;0.50;90.30;;;;;;5036448;28;20032;-68
2022/02/25 00:20:18;;;;;;;3.67;1.90;;;0.50;90.40;;;;;;5036271;28;20071;-68
2022/02/25 00:22:44;;;;;;;4.28;2.10;;;0.50;90.40;;;;;;5036086;28;20022;-67
2022/02/25 00:25:11;;;;;;;8.15;2.03;;;0.50;90.30;;;;;;5035717;28;20320;-68
2022/02/25 00:27:46;;;;;;;3.75;2.10;;;0.50;90.70;;;;;;5036492;28;20314;-68
2022/02/25 00:30:12;;;;;;;4.07;2.03;;;0.50;91.20;;;;;;5035017;28;20319;-67
2022/02/25 00:32:38;;;;;;;3.65;1.77;;;0.50;92.60;;;;;;5035097;28;20025;-68
2022/02/25 00:35:05;;;;;;;5.30;1.98;;;0.50;93.10;;;;;;5034972;28;20025;-68
2022/02/25 00:37:31;;;;;;;4.65;2.17;;;0.50;93.50;;;;;;5035871;28;20028;-68
2022/02/25 00:39:56;;;;;;;4.43;1.88;;;0.50;94.00;;;;;;5035392;28;20369;-68
2022/02/25 00:42:22;;;;;;;5.82;1.90;;;0.60;93.80;;;;;;5036140;28;20029;-68
2022/02/25 00:44:48;;;;;;;6.22;2.10;;;0.60;93.50;;;;;;5034996;28;20319;-68
2022/02/25 00:47:14;;;;;;;5.45;1.83;;;0.60;94.00;;;;;;5035908;28;20022;-68
2022/02/25 00:49:40;;;;;;;5.82;2.67;;;0.60;94.10;;;;;;5035567;28;20029;-68
2022/02/25 00:52:06;;;;;;;5.38;1.83;;;0.60;93.90;;;;;;5034776;28;20459;-68
2022/02/25 00:54:31;;;;;;;4.47;1.60;;;0.50;94.20;;;;;;5043276;28;20030;-68
2022/02/25 00:56:58;;;;;;;9.35;2.22;;;0.50;93.90;;;;;;5033055;28;20025;-68
2022/02/25 00:59:23;;;;;;;2.92;1.67;;;0.50;94.30;;;;;;5034222;28;20028;-68
2022/02/25 01:01:49;;;;;;;5.38;1.67;;;0.50;94.00;;;;;;5035214;28;20025;-68
2022/02/25 01:04:15;;;;;;;4.88;2.03;;;0.50;94.60;;;;;;5036500;28;20100;-68
2022/02/25 01:06:42;;;;;;;3.50;1.90;;;0.40;94.10;;;;;;5035270;28;20044;-68
2022/02/25 01:09:08;;;;;;;6.05;1.60;;;0.50;94.40;;;;;;5033139;28;20028;-68
2022/02/25 01:11:34;;;;;;;9.80;1.90;;;0.50;94.80;;;;;;5034792;28;20295;-68
2022/02/25 01:14:00;;;;;;;5.38;1.60;;;0.40;95.10;;;;;;5034284;28;20132;-68
2022/02/25 01:16:25;;;;;;;5.85;1.85;;;0.40;95.20;;;;;;5035356;28;20061;-68
2022/02/25 01:18:51;;;;;;;4.72;1.80;;;0.50;95.50;;;;;;5035131;28;20307;-68
2022/02/25 01:21:17;;;;;;;3.38;1.60;;;0.40;96.50;;;;;;5035600;28;20037;-68
2022/02/25 01:23:42;;;;;;;4.80;1.77;;;0.40;96.20;;;;;;5026124;28;20021;-68
2022/02/25 01:26:08;;;;;;;5.55;1.92;;;0.40;96.60;;;;;;5034156;28;20064;-68
2022/02/25 01:28:35;;;;;;;6.10;2.22;;;0.30;96.80;;;;;;5033038;28;20371;-66
2022/02/25 01:31:01;;;;;;;4.80;2.00;;;0.40;96.80;;;;;;5034848;28;20075;-68
2022/02/25 01:33:27;;;;;;;4.80;1.80;;;0.30;96.90;;;;;;5031622;28;20017;-68
2022/02/25 01:35:53;;;;;;;9.10;2.67;;;0.30;96.60;;;;;;5034257;28;20064;-68
2022/02/25 01:38:19;;;;;;;4.10;1.73;;;0.30;96.50;;;;;;5034291;28;20450;-67
2022/02/25 01:40:44;;;;;;;4.97;1.80;;;0.20;96.90;;;;;;5034142;28;20113;-68
2022/02/25 01:43:10;;;;;;;6.47;2.00;;;0.20;97.90;;;;;;5034323;28;20052;-68
2022/02/25 01:45:37;;;;;;;6.13;2.20;;;0.10;98.00;;;;;;5035112;28;20319;-68
2022/02/25 01:48:04;;;;;;;4.75;2.00;;;0.10;97.80;;;;;;5035104;28;20025;-67
2022/02/25 01:50:29;;;;;;;4.93;1.83;;;0.00;98.00;;;;;;5033835;28;20239;-67
2022/02/25 01:53:05;;;;;;;9.45;1.90;;;-0.10;98.00;;;;;;5034068;28;20029;-67
2022/02/25 01:55:32;;;;;;;7.35;2.00;;;-0.10;98.00;;;;;;5032714;28;20068;-66
2022/02/25 01:57:58;;;;;;;8.73;1.83;;;-0.10;98.00;;;;;;5023579;28;20033;-67
2022/02/25 02:00:24;;;;;;;10.57;1.85;;;-0.10;98.00;;;;;;5024873;28;20034;-66
2022/02/25 02:02:50;;;;;;;8.38;2.00;;;-0.20;98.00;;;;;;5032718;28;20109;-66
2022/02/25 02:05:16;;;;;;;5.93;1.80;;;-0.10;98.00;;;;;;5034194;28;20038;-66
2022/02/25 02:07:42;;;;;;;9.27;2.90;;;-0.20;98.00;;;;;;5034865;28;20026;-68
2022/02/25 02:10:08;;;;;;;11.98;3.03;;;-0.20;98.00;;;;;;5034771;28;20033;-67
2022/02/25 02:12:34;;;;;;;8.82;2.10;;;-0.20;98.00;;;;;;5034981;28;20111;-67
2022/02/25 02:15:00;;;;;;;11.10;2.10;;;-0.30;98.00;;;;;;5033597;28;20092;-68
2022/02/25 02:17:26;;;;;;;8.27;2.75;;;-0.40;98.00;;;;;;5036710;28;20022;-66
2022/02/25 02:19:51;;;;;;;4.95;1.80;;;-0.40;98.00;;;;;;5038722;28;20032;-67
2022/02/25 02:22:23;;;;;;;11.38;2.22;;;-0.50;98.00;;;;;;5043473;28;20039;-67
2022/02/25 02:24:48;;;;;;;7.15;2.17;;;-0.60;98.00;;;;;;5052477;28;20673;-67
2022/02/25 02:27:17;;;;;;;10.20;3.38;;;-0.60;98.00;;;;;;5038514;28;20029;-67
2022/02/25 02:29:43;;;;;;;6.85;1.98;;;-0.60;98.00;;;;;;5037249;28;20049;-67
2022/02/25 02:32:10;;;;;;;5.88;1.90;;;-0.60;98.00;;;;;;5038076;28;20484;-67
2022/02/25 02:34:39;;;;;;;4.68;1.90;;;-0.60;98.00;;;;;;5036430;28;20029;-67
2022/02/25 02:37:10;;;;;;;6.07;2.50;;;-0.60;98.00;;;;;;5037670;28;20105;-67
2022/02/25 02:39:36;;;;;;;10.30;2.00;;;-0.60;98.00;;;;;;5038500;28;20103;-68
2022/02/25 02:42:02;;;;;;;5.93;1.80;;;-0.60;98.00;;;;;;5037621;28;20029;-67
2022/02/25 02:44:27;;;;;;;8.60;2.35;;;-0.70;98.00;;;;;;5031584;28;20080;-67
2022/02/25 02:46:56;;;;;;;7.60;2.47;;;-0.90;98.00;;;;;;5037326;28;20044;-67
2022/02/25 02:49:22;;;;;;;6.10;2.15;;;-1.00;98.00;;;;;;5039074;28;20033;-67
2022/02/25 02:51:51;;;;;;;7.72;2.75;;;-1.20;98.00;;;;;;5036286;28;20083;-67
2022/02/25 02:54:17;;;;;;;7.50;2.63;;;-1.20;98.00;;;;;;5034045;28;20652;-67
2022/02/25 02:56:43;;;;;;;7.82;2.28;;;-1.20;98.00;;;;;;5037245;28;20056;-67
2022/02/25 02:59:08;;;;;;;6.22;2.08;;;-1.30;98.00;;;;;;5037453;28;20021;-67
2022/02/25 03:01:34;;;;;;;7.90;2.38;;;-1.30;98.00;;;;;;5038014;28;20026;-67
2022/02/25 03:04:00;;;;;;;8.82;1.92;;;-1.20;98.00;;;;;;5038260;28;20053;-67
2022/02/25 03:06:26;;;;;;;8.23;2.10;;;-1.20;98.00;;;;;;5026617;28;20057;-67
2022/02/25 03:08:53;;;;;;;6.30;2.25;;;-1.20;98.00;;;;;;5037524;28;20022;-68
2022/02/25 03:11:19;;;;;;;10.55;2.58;;;-1.30;98.00;;;;;;5041449;28;20108;-67
2022/02/25 03:13:44;;;;;;;8.77;2.90;;;-1.30;98.00;;;;;;5035472;28;20033;-67
2022/02/25 03:16:10;;;;;;;7.50;2.50;;;-1.40;98.00;;;;;;5036633;28;20032;-67
2022/02/25 03:18:36;;;;;;;8.70;2.40;;;-1.40;97.90;;;;;;5036237;28;20028;-67
2022/02/25 03:21:02;;;;;;;6.32;2.17;;;-1.40;98.00;;;;;;5037515;28;20029;-67
2022/02/25 03:23:27;;;;;;;7.25;2.50;;;-1.40;98.00;;;;;;5035599;28;20021;-67
2022/02/25 03:25:53;;;;;;;7.03;2.10;;;-1.50;98.00;;;;;;5037789;28;20049;-67
2022/02/25 03:28:19;;;;;;;10.27;2.03;;;-1.50;98.00;;;;;;5035010;28;20149;-67
2022/02/25 03:30:44;;;;;;;5.35;2.10;;;-1.50;98.00;;;;;;5033286;28;20060;-67
2022/02/25 03:33:10;;;;;;;4.72;2.08;;;-1.60;98.00;;;;;;5036784;28;20032;-67
2022/02/25 03:35:36;;;;;;;5.88;1.90;;;-1.70;98.00;;;;;;5037088;28;20033;-67
2022/02/25 03:38:04;;;;;;;16.98;4.40;;;-1.70;97.90;;;;;;5037143;28;20018;-67
2022/02/25 03:40:30;;;;;;;9.25;2.08;;;-1.60;98.00;;;;;;5037131;28;20107;-67
2022/02/25 03:42:56;;;;;;;10.32;2.13;;;-1.60;98.00;;;;;;5034796;28;20426;-67
2022/02/25 03:45:22;;;;;;;12.32;3.28;;;-1.70;98.00;;;;;;5036759;28;20025;-67
2022/02/25 03:47:48;;;;;;;7.85;1.92;;;-1.60;98.00;;;;;;5036669;28;20017;-67
2022/02/25 03:50:14;;;;;;;8.05;1.95;;;-1.50;98.00;;;;;;5036574;28;20056;-67
2022/02/25 03:52:40;;;;;;;9.27;2.45;;;-1.50;98.00;;;;;;5036392;28;20076;-67
2022/02/25 03:55:08;;;;;;;8.68;3.00;;;-1.60;98.00;;;;;;5036202;28;20021;-67
2022/02/25 03:57:34;;;;;;;6.78;2.00;;;-1.60;98.00;;;;;;5036979;28;20025;-67
2022/02/25 04:00:00;;;;;;;7.20;2.35;;;-1.60;98.00;;;;;;5035139;28;20033;-67
2022/02/25 04:02:26;;;;;;;19.52;5.82;;;-1.50;98.00;;;;;;5036341;28;20419;-67
2022/02/25 04:04:52;;;;;;;8.18;2.10;;;-1.40;98.00;;;;;;5036731;28;20496;-67
2022/02/25 04:07:17;;;;;;;10.45;2.55;;;-1.40;98.00;;;;;;5035664;28;20029;-67
2022/02/25 04:09:43;;;;;;;12.70;2.28;;;-1.30;98.00;;;;;;5035283;28;20024;-67
2022/02/25 04:12:09;;;;;;;11.20;2.20;;;-1.20;98.00;;;;;;5036089;28;20074;-67
2022/02/25 04:14:36;;;;;;;11.48;2.42;;;-1.10;98.00;;;;;;5046322;28;20029;-67
2022/02/25 04:17:03;;;;;;;11.60;2.45;;;-1.10;98.00;;;;;;5042910;28;20040;-67
2022/02/25 04:19:29;;;;;;;10.75;3.05;;;-1.00;98.00;;;;;;5032174;28;20100;-67
2022/02/25 04:21:54;;;;;;;16.40;2.75;;;-0.80;98.00;;;;;;5034078;28;20045;-67
2022/02/25 04:24:20;;;;;;;11.95;2.33;;;-0.70;98.00;;;;;;5035768;28;20029;-67
2022/02/25 04:26:45;;;;;;;7.47;2.42;;;-0.60;98.00;;;;;;5035088;28;20056;-66
2022/02/25 04:29:12;;;;;;;8.82;2.10;;;-0.60;98.00;;;;;;5034739;28;20346;-67
2022/02/25 04:31:38;;;;;;;7.20;2.35;;;-0.70;98.00;;;;;;5035874;28;20083;-67
2022/02/25 04:34:06;;;;;;;14.20;2.50;;;-0.70;98.00;;;;;;5036459;28;20029;-67
2022/02/25 04:36:36;;;;;;;7.40;2.30;;;-0.60;98.00;;;;;;5035428;28;20033;-65
2022/02/25 04:39:05;;;;;;;13.80;3.50;;;-0.60;98.00;;;;;;5023994;28;20411;-67
2022/02/25 04:41:31;;;;;;;11.07;2.97;;;-0.60;98.00;;;;;;5034762;28;20037;-66
2022/02/25 04:43:59;;;;;;;9.77;2.60;;;-0.60;98.00;;;;;;5035424;28;20048;-66
2022/02/25 04:46:26;;;;;;;28.90;4.03;;;-0.60;98.00;;;;;;5036122;28;20085;-67
2022/02/25 04:48:52;;;;;;;10.82;2.75;;;-0.50;98.00;;;;;;5035684;28;20048;-66
2022/02/25 04:51:18;;;;;;;13.75;2.88;;;-0.60;98.00;;;;;;5034843;28;20026;-66
2022/02/25 04:53:45;;;;;;;11.45;3.20;;;-0.60;98.00;;;;;;5032688;28;20029;-65
2022/02/25 04:56:11;;;;;;;12.23;3.30;;;-0.60;98.00;;;;;;5035144;28;20044;-65
2022/02/25 04:58:40;;;;;;;9.77;3.22;;;-0.50;98.00;;;;;;5032746;28;20030;-66
2022/02/25 05:01:06;;;;;;;11.98;3.40;;;-0.60;98.00;;;;;;5035436;28;20167;-67
2022/02/25 05:03:32;;;;;;;12.30;3.72;;;-0.50;98.00;;;;;;5036123;28;20026;-68
2022/02/25 05:05:59;;;;;;;12.68;3.55;;;-0.40;98.00;;;;;;5035681;28;20037;-67
2022/02/25 05:08:24;;;;;;;16.52;3.13;;;-0.20;98.00;;;;;;5035093;28;20338;-67
2022/02/25 05:10:53;;;;;;;15.75;3.03;;;-0.10;98.00;;;;;;5035690;28;20025;-67
2022/02/25 05:13:19;;;;;;;10.88;3.22;;;-0.20;98.00;;;;;;5022555;28;20419;-66
2022/02/25 05:21:14;;;;;;;14.60;3.67;;;-0.30;98.00;;;;;;5035182;28;20369;-66
2022/02/25 05:23:41;;;;;;;14.70;3.22;;;-0.20;98.00;;;;;;5036664;28;20092;-66
2022/02/25 05:26:06;;;;;;;12.43;3.05;;;-0.10;98.00;;;;;;5034220;28;20053;-66
2022/02/25 05:28:32;;;;;;;8.77;2.92;;;-0.10;98.00;;;;;;5033423;28;20033;-66
2022/02/25 05:31:00;;;;;;;19.15;3.88;;;-0.20;98.00;;;;;;5032405;28;20037;-66
2022/02/25 05:33:26;;;;;;;14.30;3.13;;;-0.20;98.00;;;;;;5034044;28;20091;-67
2022/02/25 05:35:52;;;;;;;12.73;3.17;;;-0.30;98.00;;;;;;5038051;28;20342;-65
2022/02/25 05:38:18;;;;;;;13.07;3.67;;;-0.30;98.00;;;;;;5035436;28;20018;-66
2022/02/25 05:40:44;;;;;;;10.27;3.72;;;-0.30;98.00;;;;;;5034916;28;20029;-66
2022/02/25 05:43:09;;;;;;;13.95;3.35;;;-0.30;98.00;;;;;;5033652;28;20037;-66
2022/02/25 05:45:35;;;;;;;17.38;3.60;;;-0.20;98.00;;;;;;5034739;28;20358;-66
2022/02/25 05:48:01;;;;;;;17.77;4.65;;;-0.30;98.00;;;;;;5034319;28;20033;-66
2022/02/25 05:50:26;;;;;;;9.75;3.03;;;-0.30;98.00;;;;;;5033259;28;20037;-66
2022/02/25 05:52:53;;;;;;;12.90;4.07;;;-0.30;98.00;;;;;;5032263;28;20033;-66
2022/02/25 05:55:20;;;;;;;18.00;4.00;;;-0.30;98.00;;;;;;5035097;28;20067;-66
2022/02/25 05:57:47;;;;;;;14.70;3.45;;;-0.20;98.00;;;;;;5035488;28;20022;-66
2022/02/25 06:00:15;;;;;;;13.65;4.03;;;-0.30;98.00;;;;;;5033413;28;20161;-66
2022/02/25 06:02:45;;;;;;;17.35;4.00;;;-0.30;98.00;;;;;;5031645;28;20140;-65
2022/02/25 06:05:11;;;;;;;14.45;3.40;;;-0.20;98.00;;;;;;5041315;28;20025;-66
2022/02/25 06:07:37;;;;;;;16.83;4.13;;;-0.20;98.00;;;;;;5035175;28;20025;-66
2022/02/25 06:10:04;;;;;;;15.93;4.30;;;-0.30;98.00;;;;;;5035288;28;20044;-66
2022/02/25 06:12:30;;;;;;;14.48;3.33;;;-0.30;98.00;;;;;;5034273;28;20299;-66
2022/02/25 06:14:55;;;;;;;16.58;3.10;;;-0.30;98.00;;;;;;5032431;28;20124;-66
2022/02/25 06:17:21;;;;;;;11.57;3.28;;;-0.20;98.00;;;;;;5034592;28;20339;-66
2022/02/25 06:19:47;;;;;;;8.50;3.03;;;-0.20;98.00;;;;;;5035314;28;20083;-66
2022/02/25 06:22:13;;;;;;;11.77;3.63;;;-0.20;98.00;;;;;;5035026;28;20026;-66
2022/02/25 06:24:38;;;;;;;14.15;4.88;;;-0.20;98.00;;;;;;5034886;28;20426;-66
2022/02/25 06:27:04;;;;;;;21.00;4.30;;;-0.20;98.00;;;;;;5035258;28;20036;-66
2022/02/25 06:29:30;;;;;;;22.73;7.00;;;-0.20;98.00;;;;;;5033999;28;20033;-66
2022/02/25 06:31:55;;;;;;;13.07;4.20;;;-0.30;98.00;;;;;;5034360;28;20037;-66
2022/02/25 06:34:21;;;;;;;16.42;3.15;;;-0.20;98.00;;;;;;5035174;28;20033;-66
2022/02/25 06:36:47;;;;;;;10.18;2.85;;;-0.20;98.00;;;;;;5034628;28;20033;-66
2022/02/25 06:39:13;;;;;;;11.77;3.20;;;-0.10;98.00;;;;;;5034904;28;20033;-66
2022/02/25 06:41:39;;;;;;;7.85;2.28;;;-0.10;98.00;;;;;;5035013;28;20026;-66
2022/02/25 06:44:14;;;;;;;13.70;3.55;;;0.00;98.00;;;;;;5032657;28;20437;-66
2022/02/25 06:46:40;;;;;;;14.50;3.60;;;0.00;98.00;;;;;;5034001;28;20033;-66
2022/02/25 06:49:05;;;;;;;14.43;4.05;;;0.00;98.00;;;;;;5033945;28;20041;-67
2022/02/25 06:51:31;;;;;;;19.08;6.75;;;0.00;98.00;;;;;;5033942;28;20126;-66
2022/02/25 06:53:57;;;;;;;11.52;3.50;;;0.10;98.00;;;;;;5034732;28;20030;-66
2022/02/25 06:56:23;;;;;;;15.95;5.88;;;0.10;98.00;;;;;;5034869;28;20032;-66
2022/02/25 06:58:49;;;;;;;9.55;3.03;;;0.10;98.00;;;;;;5033371;28;20635;-66
2022/02/25 07:01:14;;;;;;;12.73;3.53;;;0.10;98.00;;;;;;5032119;28;20030;-66
2022/02/25 07:03:40;;;;;;;10.50;3.13;;;0.10;98.00;;;;;;5033990;28;20030;-66
2022/02/25 07:06:06;;;;;;;11.68;3.65;;;0.20;98.00;;;;;;5037917;28;20032;-66
2022/02/25 07:08:35;;;;;;;17.00;3.00;;;0.10;98.00;;;;;;5043787;28;20041;-66
2022/02/25 07:11:00;;;;;;;13.05;3.33;;;0.20;98.00;;;;;;5036246;28;20041;-66
2022/02/25 07:13:26;;;;;;;13.00;2.90;;;0.20;98.00;;;;;;5037135;28;20036;-66
2022/02/25 07:15:58;;;;;;;13.68;3.17;;;0.20;98.00;;;;;;5036967;28;20032;-67
2022/02/25 07:18:24;;;;;;;10.75;3.00;;;0.20;98.00;;;;;;5037511;28;20026;-67
2022/02/25 07:20:49;;;;;;;8.75;3.00;;;0.30;98.00;;;;;;5036886;28;20033;-67
2022/02/25 07:23:18;;;;;;;10.65;2.80;;;0.30;98.00;;;;;;5038053;28;20021;-67
2022/02/25 07:25:44;;;;;;;16.48;2.85;;;0.40;98.00;;;;;;5037721;28;20049;-67
2022/02/25 07:28:10;;;;;;;15.38;3.08;;;0.40;98.00;;;;;;5035257;28;20410;-67
2022/02/25 07:30:36;;;;;;;11.32;2.65;;;0.50;97.90;;;;;;5037543;28;20068;-67
2022/02/25 07:33:02;;;;;;;12.60;3.47;;;0.60;97.60;;;;;;5038154;28;20445;-67
2022/02/25 07:35:29;;;;;;;7.90;2.55;;;0.60;97.60;;;;;;5036748;28;20057;-67
2022/02/25 07:37:55;;;;;;;7.10;2.10;;;0.70;97.30;;;;;;5037698;28;20025;-66
2022/02/25 07:40:21;;;;;;;13.30;2.65;;;0.70;97.20;;;;;;5038089;28;20025;-67
2022/02/25 07:42:50;;;;;;;13.93;3.83;;;0.80;96.90;;;;;;5037600;28;20025;-67
2022/02/25 07:45:16;;;;;;;10.57;2.63;;;0.80;96.70;;;;;;5035356;28;20349;-66
2022/02/25 07:47:42;;;;;;;10.85;2.38;;;0.90;96.20;;;;;;5020558;28;20036;-65
2022/02/25 07:50:10;;;;;;;8.80;2.60;;;0.90;96.00;;;;;;5037596;28;20108;-65
2022/02/25 07:52:35;;;;;;;11.77;3.30;;;0.90;95.70;;;;;;5037588;28;20045;-65
2022/02/25 07:55:04;;;;;;;12.07;2.50;;;1.00;95.60;;;;;;5037200;28;20426;-65
2022/02/25 07:57:30;;;;;;;12.90;3.50;;;1.20;94.80;;;;;;5037721;28;20025;-67
2022/02/25 07:59:56;;;;;;;13.63;2.95;;;1.40;94.20;;;;;;5034893;28;20022;-67
2022/02/25 08:02:21;;;;;;;11.98;2.42;;;1.70;93.40;;;;;;5036038;28;20030;-67
2022/02/25 08:04:47;;;;;;;10.77;2.65;;;1.80;92.80;;;;;;5036852;28;20311;-67
2022/02/25 08:07:13;;;;;;;11.43;2.55;;;1.90;92.50;;;;;;5037422;28;20415;-67
2022/02/25 08:09:38;;;;;;;9.25;2.25;;;1.90;91.80;;;;;;5037557;28;20431;-67
2022/02/25 08:12:04;;;;;;;9.88;2.50;;;1.90;91.60;;;;;;5036224;28;20037;-67
2022/02/25 08:14:33;;;;;;;10.88;2.70;;;1.80;91.90;;;;;;5034626;28;20030;-67
2022/02/25 08:16:59;;;;;;;8.38;2.97;;;2.00;91.20;;;;;;5036207;28;20363;-67
2022/02/25 08:19:25;;;;;;;11.55;2.85;;;2.00;90.80;;;;;;5036106;28;20065;-67
2022/02/25 08:21:51;;;;;;;11.05;2.60;;;2.00;90.90;;;;;;5037320;28;20143;-67
2022/02/25 08:24:16;;;;;;;9.50;2.20;;;2.30;90.50;;;;;;5037009;28;20036;-67
2022/02/25 08:26:42;;;;;;;16.73;2.90;;;2.80;88.60;;;;;;5037076;28;20049;-67
2022/02/25 08:29:07;;;;;;;11.77;2.90;;;2.60;87.90;;;;;;5035270;28;20033;-67
2022/02/25 08:31:33;;;;;;;10.90;2.30;;;2.80;88.20;;;;;;5037353;28;20025;-67
2022/02/25 08:33:59;;;;;;;13.77;2.50;;;2.50;88.40;;;;;;5036908;28;20029;-67
2022/02/25 08:36:24;;;;;;;8.63;2.50;;;2.30;89.30;;;;;;5036969;28;20087;-67
2022/02/25 08:38:50;;;;;;;14.85;2.40;;;2.20;90.10;;;;;;5035366;28;20318;-66
2022/02/25 08:41:16;;;;;;;11.32;2.42;;;2.10;90.30;;;;;;5036998;28;20031;-66
2022/02/25 08:43:42;;;;;;;12.00;2.80;;;2.00;90.80;;;;;;5035134;28;20418;-66
2022/02/25 08:46:09;;;;;;;5.85;2.28;;;2.00;90.90;;;;;;5036589;28;20088;-66
2022/02/25 08:48:35;;;;;;;14.35;2.92;;;2.00;91.30;;;;;;5036524;28;20025;-66
2022/02/25 08:51:01;;;;;;;11.73;2.15;;;2.40;89.50;;;;;;5036560;28;20021;-66
2022/02/25 08:53:27;;;;;;;9.32;3.00;;;2.00;90.20;;;;;;5036341;28;20074;-66
2022/02/25 08:55:52;;;;;;;10.82;3.20;;;2.20;90.50;;;;;;5036811;28;20025;-66
2022/02/25 08:58:21;;;;;;;8.45;2.17;;;3.20;88.30;;;;;;5035247;28;20036;-66
2022/02/25 09:00:47;;;;;;;7.25;2.38;;;4.10;85.10;;;;;;5036570;28;20414;-67
2022/02/25 09:03:13;;;;;;;7.93;2.88;;;5.10;82.40;;;;;;5036416;28;20104;-66
2022/02/25 09:05:38;;;;;;;8.02;2.47;;;5.50;80.00;;;;;;5036598;28;20152;-66
2022/02/25 09:08:04;;;;;;;8.98;2.22;;;5.70;80.40;;;;;;5036223;28;20026;-66
2022/02/25 09:10:30;;;;;;;12.38;2.22;;;6.00;77.70;;;;;;5036491;28;20030;-67
2022/02/25 09:12:56;;;;;;;11.30;2.50;;;5.80;79.70;;;;;;5035378;28;20036;-67
2022/02/25 09:15:25;;;;;;;10.18;2.30;;;6.30;78.30;;;;;;5036201;28;20037;-67
2022/02/25 09:17:56;;;;;;;8.27;1.90;;;6.10;77.50;;;;;;5034805;28;20025;-67
2022/02/25 09:20:23;;;;;;;9.80;2.33;;;6.00;77.20;;;;;;5036331;28;20026;-67
2022/02/25 09:22:52;;;;;;;12.48;2.50;;;5.90;78.80;;;;;;5034954;28;20025;-67
2022/02/25 09:25:18;;;;;;;6.10;1.60;;;5.90;78.10;;;;;;5034904;28;20048;-67
2022/02/25 09:27:44;;;;;;;11.35;2.25;;;6.00;77.80;;;;;;5034423;28;20474;-67
2022/02/25 09:30:12;;;;;;;13.32;2.75;;;5.80;78.50;;;;;;5019880;28;20033;-67
2022/02/25 09:32:39;;;;;;;8.23;2.15;;;6.00;78.30;;;;;;5016245;28;20036;-67
2022/02/25 09:35:06;;;;;;;9.00;2.38;;;6.00;78.30;;;;;;5033974;28;20025;-67
2022/02/25 09:37:35;;;;;;;9.65;2.22;;;6.00;78.00;;;;;;5034547;28;20022;-67
2022/02/25 09:40:07;;;;;;;14.52;3.28;;;6.70;78.00;;;;;;5035740;28;20457;-67
2022/02/25 09:42:38;;;;;;;9.90;2.05;;;6.90;77.00;;;;;;5035737;28;20108;-67
2022/02/25 09:45:05;;;;;;;10.93;2.28;;;6.70;76.90;;;;;;5033958;28;20099;-68
2022/02/25 09:47:35;;;;;;;8.18;1.70;;;6.70;76.60;;;;;;5036095;28;20386;-68
2022/02/25 09:50:05;;;;;;;10.57;2.20;;;7.20;75.90;;;;;;5035471;28;20021;-67
2022/02/25 09:52:32;;;;;;;7.28;2.10;;;7.00;75.30;;;;;;5035636;28;20076;-68
2022/02/25 09:54:58;;;;;;;9.75;2.30;;;6.70;75.50;;;;;;5035171;28;20026;-68
2022/02/25 09:57:23;;;;;;;10.15;2.00;;;7.10;76.50;;;;;;5035847;28;20435;-67
2022/02/25 09:59:49;;;;;;;9.15;1.95;;;7.40;74.00;;;;;;5034580;28;20025;-68
2022/02/25 10:02:15;;;;;;;11.02;2.13;;;7.50;74.00;;;;;;5035886;28;20061;-68
2022/02/25 10:04:40;;;;;;;8.85;1.75;;;7.10;74.20;;;;;;5035315;28;20025;-67
2022/02/25 10:07:27;;;;;;;6.10;1.63;;;7.30;74.50;;;;;;5035866;28;20025;-68
2022/02/25 10:09:53;;;;;;;6.55;2.03;;;7.30;74.60;;;;;;5035047;28;20025;-68
2022/02/25 10:12:20;;;;;;;10.10;2.25;;;6.90;73.70;;;;;;5035515;28;20334;-67
2022/02/25 10:14:48;;;;;;;9.45;1.88;;;6.80;73.60;;;;;;5034173;28;20018;-67
2022/02/25 10:17:22;;;;;;;7.93;2.38;;;6.60;73.80;;;;;;5035644;28;20044;-68
2022/02/25 10:19:53;;;;;;;8.88;2.10;;;6.30;74.20;;;;;;5035042;28;20127;-68
2022/02/25 10:22:26;;;;;;;7.90;1.75;;;6.70;73.60;;;;;;5035658;28;20029;-67
2022/02/25 10:24:56;;;;;;;9.27;2.33;;;6.70;72.70;;;;;;5034858;28;20061;-67
2022/02/25 10:27:27;;;;;;;7.35;1.77;;;6.20;72.40;;;;;;5035613;28;20036;-68
2022/02/25 10:30:08;;;;;;;8.05;1.80;;;6.50;72.80;;;;;;5032585;28;20037;-67
2022/02/25 10:32:55;;;;;;;8.75;1.95;;;5.90;74.60;;;;;;5015714;28;20021;-67
2022/02/25 10:35:30;;;;;;;7.00;2.15;;;5.50;74.30;;;;;;5027657;28;20025;-67
2022/02/25 10:38:15;;;;;;;9.15;2.15;;;4.70;74.90;;;;;;5037612;28;20104;-67
2022/02/25 10:40:47;;;;;;;10.20;2.13;;;4.30;77.20;;;;;;5038796;28;20418;-67
2022/02/25 10:43:16;;;;;;;10.70;2.28;;;4.10;78.20;;;;;;5037977;28;20256;-66
2022/02/25 10:45:44;;;;;;;14.20;2.67;;;4.00;77.90;;;;;;5039065;28;20284;-68
2022/02/25 10:48:21;;;;;;;10.60;2.85;;;3.90;78.10;;;;;;5038941;28;20112;-66
2022/02/25 10:50:55;;;;;;;10.27;2.38;;;3.90;78.10;;;;;;5037755;28;20029;-69
2022/02/25 10:53:29;;;;;;;13.25;3.10;;;3.90;78.30;;;;;;5039059;28;20032;-67
2022/02/25 10:56:12;;;;;;;10.50;2.63;;;4.30;78.00;;;;;;5038597;28;20030;-68
2022/02/25 10:58:41;;;;;;;7.93;2.00;;;5.10;76.00;;;;;;5037129;28;20432;-67
2022/02/25 11:01:07;;;;;;;6.75;2.80;;;4.70;76.00;;;;;;5039001;28;20403;-67
2022/02/25 11:03:32;;;;;;;11.27;2.33;;;4.50;76.10;;;;;;5037246;28;20075;-67
2022/02/25 11:05:59;;;;;;;7.45;1.80;;;5.00;77.40;;;;;;5038524;28;20029;-68
2022/02/25 11:08:24;;;;;;;7.53;1.58;;;6.00;75.00;;;;;;5038455;28;20434;-67
2022/02/25 11:10:51;;;;;;;7.60;1.95;;;6.40;71.70;;;;;;5037778;28;20036;-67
2022/02/25 11:13:19;;;;;;;9.48;1.67;;;6.20;71.80;;;;;;5032526;28;20124;-67
2022/02/25 11:15:45;;;;;;;10.43;2.05;;;5.40;73.90;;;;;;5032505;28;20026;-67
2022/02/25 11:18:11;;;;;;;9.38;1.85;;;5.30;76.10;;;;;;5037241;28;20092;-67
2022/02/25 11:20:42;;;;;;;6.20;1.65;;;6.30;73.00;;;;;;5040398;28;20029;-69
2022/02/25 11:23:10;;;;;;;4.75;1.45;;;6.70;71.20;;;;;;5037454;28;20021;-67
2022/02/25 11:25:37;;;;;;;9.05;2.20;;;7.30;69.60;;;;;;5037315;28;20053;-67
2022/02/25 11:28:03;;;;;;;10.20;1.73;;;6.80;69.90;;;;;;5037294;28;20022;-67
2022/02/25 11:31:02;;;;;;;10.18;1.80;;;5.80;70.30;;;;;;5038145;28;20025;-66
2022/02/25 11:33:29;;;;;;;13.63;3.33;;;5.40;72.40;;;;;;5005440;28;20375;-67
2022/02/25 11:36:12;;;;;;;9.77;2.97;;;5.30;74.40;;;;;;5037981;28;20030;-67
2022/02/25 11:38:45;;;;;;;8.20;1.83;;;4.80;73.20;;;;;;5038193;28;20432;-67
2022/02/25 11:41:22;;;;;;;5.10;1.67;;;4.40;74.30;;;;;;5035133;28;20030;-66
2022/02/25 11:43:59;;;;;;;15.13;2.60;;;4.10;75.40;;;;;;5050568;28;20123;-66
2022/02/25 11:46:27;;;;;;;11.80;3.67;;;4.20;75.80;;;;;;5041248;28;20057;-66
2022/02/25 11:49:12;;;;;;;11.70;3.60;;;4.10;76.20;;;;;;5052901;28;20112;-67
2022/02/25 11:51:55;;;;;;;20.27;6.22;;;4.10;76.50;;;;;;5040463;28;20033;-67
2022/02/25 11:54:24;;;;;;;11.18;3.45;;;4.00;76.30;;;;;;5037050;28;20108;-68
2022/02/25 11:56:59;;;;;;;13.20;4.03;;;4.00;77.50;;;;;;5036293;28;20037;-67
2022/02/25 11:59:31;;;;;;;9.98;2.50;;;4.00;77.80;;;;;;5034770;28;20060;-67
2022/02/25 12:02:05;;;;;;;8.95;3.00;;;4.10;77.80;;;;;;5036689;28;20017;-67
2022/02/25 12:04:32;;;;;;;10.70;2.90;;;4.10;77.50;;;;;;5036087;28;20028;-66
2022/02/25 12:07:12;;;;;;;11.15;2.67;;;4.10;77.20;;;;;;5036408;28;20036;-67
2022/02/25 12:09:45;;;;;;;12.82;2.60;;;4.20;77.30;;;;;;5036801;28;20049;-67
2022/02/25 12:12:22;;;;;;;13.15;2.70;;;4.10;76.30;;;;;;5037061;28;20048;-67
2022/02/25 12:15:10;;;;;;;6.80;2.55;;;3.90;76.60;;;;;;5035732;28;20426;-66
2022/02/25 12:17:51;;;;;;;13.13;2.95;;;3.90;76.90;;;;;;5036041;28;20088;-67
2022/02/25 12:20:22;;;;;;;12.35;3.40;;;3.90;77.80;;;;;;5037229;28;20017;-67
2022/02/25 12:22:54;;;;;;;7.75;2.63;;;3.90;77.40;;;;;;5036818;28;20083;-67
2022/02/25 12:25:41;;;;;;;8.68;2.00;;;3.90;78.20;;;;;;5034484;28;20041;-67
2022/02/25 12:28:30;;;;;;;6.60;1.80;;;3.80;78.30;;;;;;5034838;28;20018;-66
2022/02/25 12:31:05;;;;;;;10.30;2.90;;;3.80;78.20;;;;;;5036836;28;20322;-67
2022/02/25 12:33:40;;;;;;;10.48;2.65;;;3.90;78.70;;;;;;5028721;28;20018;-67
2022/02/25 12:36:20;;;;;;;14.95;4.00;;;4.10;78.30;;;;;;5026660;28;20049;-67
2022/02/25 12:38:50;;;;;;;10.40;2.80;;;4.10;77.80;;;;;;5033756;28;20367;-67
2022/02/25 12:41:17;;;;;;;9.90;3.10;;;4.10;78.20;;;;;;5036773;28;20354;-67
2022/02/25 12:44:13;;;;;;;9.80;2.20;;;4.10;78.30;;;;;;5032162;28;20058;-66
2022/02/25 12:46:48;;;;;;;8.48;2.05;;;4.00;78.50;;;;;;5028259;28;20047;-67
2022/02/25 12:49:21;;;;;;;9.68;2.42;;;4.00;79.10;;;;;;5035303;28;20443;-67
2022/02/25 12:51:48;;;;;;;14.02;2.40;;;4.10;79.00;;;;;;5035430;28;20392;-67
2022/02/25 12:54:19;;;;;;;11.80;3.67;;;4.20;78.60;;;;;;5035685;28;20422;-66
2022/02/25 12:56:51;;;;;;;10.73;2.58;;;4.30;78.50;;;;;;5035546;28;20044;-67